sensor_id;sensor_type;location;lat;lon;timestamp;temperature;humidity
26589;DHT22;14235;48.532;8.722;2023-04-03T00:02:04;6.10;99.90
26589;DHT22;14235;48.532;8.722;2023-04-03T00:04:30;6.10;99.90
26589;DHT22;14235;48.532;8.722;2023-04-03T00:06:56;6.20;99.90
26589;DHT22;14235;48.532;8.722;2023-04-03T00:09:21;6.10;99.90
26589;DHT22;14235;48.532;8.722;2023-04-03T00:11:47;6.20;99.90
26589;DHT22;14235;48.532;8.722;2023-04-03T00:14:12;6.00;99.90
26589;DHT22;14235;48.532;8.722;2023-04-03T00:16:38;6.10;99.90
26589;DHT22;14235;48.532;8.722;2023-04-03T00:19:03;5.90;99.90
26589;DHT22;14235;48.532;8.722;2023-04-03T00:21:29;6.10;99.90
26589;DHT22;14235;48.532;8.722;2023-04-03T00:23:54;6.10;99.90
26589;DHT22;14235;48.532;8.722;2023-04-03T00:28:47;6.10;99.90
26589;DHT22;14235;48.532;8.722;2023-04-03T00:31:15;6.10;99.90
26589;DHT22;14235;48.532;8.722;2023-04-03T00:33:41;6.10;99.90
26589;DHT22;14235;48.532;8.722;2023-04-03T00:36:09;6.10;99.90
26589;DHT22;14235;48.532;8.722;2023-04-03T00:38:35;6.10;99.90
26589;DHT22;14235;48.532;8.722;2023-04-03T00:41:00;6.00;99.90
26589;DHT22;14235;48.532;8.722;2023-04-03T00:43:27;6.00;99.90
26589;DHT22;14235;48.532;8.722;2023-04-03T00:45:57;6.00;99.90
26589;DHT22;14235;48.532;8.722;2023-04-03T00:48:28;6.10;99.90
26589;DHT22;14235;48.532;8.722;2023-04-03T00:50:55;6.00;99.90
26589;DHT22;14235;48.532;8.722;2023-04-03T00:53:34;6.00;99.90
26589;DHT22;14235;48.532;8.722;2023-04-03T00:56:00;6.00;99.90
26589;DHT22;14235;48.532;8.722;2023-04-03T00:58:35;6.00;99.90
26589;DHT22;14235;48.532;8.722;2023-04-03T01:01:05;6.00;99.90
26589;DHT22;14235;48.532;8.722;2023-04-03T01:03:32;5.90;99.90
26589;DHT22;14235;48.532;8.722;2023-04-03T01:05:58;5.90;99.90
26589;DHT22;14235;48.532;8.722;2023-04-03T01:08:23;5.90;99.90
26589;DHT22;14235;48.532;8.722;2023-04-03T01:10:49;5.70;99.90
26589;DHT22;14235;48.532;8.722;2023-04-03T01:13:33;5.60;99.90
26589;DHT22;14235;48.532;8.722;2023-04-03T01:16:04;5.50;99.90
26589;DHT22;14235;48.532;8.722;2023-04-03T01:18:31;5.60;99.90
26589;DHT22;14235;48.532;8.722;2023-04-03T01:24:16;5.40;99.90
26589;DHT22;14235;48.532;8.722;2023-04-03T01:26:44;5.40;99.90
26589;DHT22;14235;48.532;8.722;2023-04-03T01:29:10;5.20;99.90
26589;DHT22;14235;48.532;8.722;2023-04-03T01:31:49;5.20;99.90
26589;DHT22;14235;48.532;8.722;2023-04-03T01:34:15;5.50;99.90
26589;DHT22;14235;48.532;8.722;2023-04-03T01:36:40;5.50;99.90
26589;DHT22;14235;48.532;8.722;2023-04-03T01:39:06;5.40;99.90
26589;DHT22;14235;48.532;8.722;2023-04-03T01:41:32;5.50;99.90
26589;DHT22;14235;48.532;8.722;2023-04-03T01:43:57;5.50;99.90
26589;DHT22;14235;48.532;8.722;2023-04-03T01:46:23;5.50;99.90
26589;DHT22;14235;48.532;8.722;2023-04-03T01:48:48;5.40;99.90
26589;DHT22;14235;48.532;8.722;2023-04-03T01:51:14;5.30;99.90
26589;DHT22;14235;48.532;8.722;2023-04-03T01:53:40;5.20;99.90
26589;DHT22;14235;48.532;8.722;2023-04-03T01:56:06;5.40;99.90
26589;DHT22;14235;48.532;8.722;2023-04-03T01:58:32;5.30;99.90
26589;DHT22;14235;48.532;8.722;2023-04-03T02:08:27;5.30;99.90
26589;DHT22;14235;48.532;8.722;2023-04-03T02:10:53;5.30;99.90
26589;DHT22;14235;48.532;8.722;2023-04-03T02:13:19;5.40;99.90
26589;DHT22;14235;48.532;8.722;2023-04-03T02:15:45;5.20;99.90
26589;DHT22;14235;48.532;8.722;2023-04-03T02:18:11;5.10;99.90
26589;DHT22;14235;48.532;8.722;2023-04-03T02:20:37;5.10;99.90
26589;DHT22;14235;48.532;8.722;2023-04-03T02:23:02;5.00;99.90
26589;DHT22;14235;48.532;8.722;2023-04-03T02:27:56;5.10;99.90
26589;DHT22;14235;48.532;8.722;2023-04-03T02:30:22;5.30;99.90
26589;DHT22;14235;48.532;8.722;2023-04-03T02:32:47;4.90;99.90
26589;DHT22;14235;48.532;8.722;2023-04-03T02:35:13;5.00;99.90
26589;DHT22;14235;48.532;8.722;2023-04-03T02:37:39;4.90;99.90
26589;DHT22;14235;48.532;8.722;2023-04-03T02:40:05;4.80;99.90
26589;DHT22;14235;48.532;8.722;2023-04-03T02:42:31;5.00;99.90
26589;DHT22;14235;48.532;8.722;2023-04-03T02:44:57;5.00;99.90
26589;DHT22;14235;48.532;8.722;2023-04-03T02:47:22;5.00;99.90
26589;DHT22;14235;48.532;8.722;2023-04-03T02:49:48;5.10;99.90
26589;DHT22;14235;48.532;8.722;2023-04-03T02:52:14;5.10;99.90
26589;DHT22;14235;48.532;8.722;2023-04-03T02:54:40;5.20;99.90
26589;DHT22;14235;48.532;8.722;2023-04-03T02:57:06;5.20;99.90
26589;DHT22;14235;48.532;8.722;2023-04-03T02:59:35;5.20;99.90
26589;DHT22;14235;48.532;8.722;2023-04-03T03:02:01;5.30;99.90
26589;DHT22;14235;48.532;8.722;2023-04-03T03:04:26;5.30;99.90
26589;DHT22;14235;48.532;8.722;2023-04-03T03:06:52;5.30;99.90
26589;DHT22;14235;48.532;8.722;2023-04-03T03:09:18;5.40;99.90
26589;DHT22;14235;48.532;8.722;2023-04-03T03:11:43;5.40;99.90
26589;DHT22;14235;48.532;8.722;2023-04-03T03:14:09;5.60;99.90
26589;DHT22;14235;48.532;8.722;2023-04-03T03:16:35;5.40;99.90
26589;DHT22;14235;48.532;8.722;2023-04-03T03:19:00;5.30;99.90
26589;DHT22;14235;48.532;8.722;2023-04-03T03:21:26;5.30;99.90
26589;DHT22;14235;48.532;8.722;2023-04-03T03:23:51;5.20;99.90
26589;DHT22;14235;48.532;8.722;2023-04-03T03:26:17;5.40;99.90
26589;DHT22;14235;48.532;8.722;2023-04-03T03:28:42;5.40;99.90
26589;DHT22;14235;48.532;8.722;2023-04-03T03:31:08;5.30;99.90
26589;DHT22;14235;48.532;8.722;2023-04-03T03:33:34;5.40;99.90
26589;DHT22;14235;48.532;8.722;2023-04-03T03:36:00;5.30;99.90
26589;DHT22;14235;48.532;8.722;2023-04-03T03:38:26;5.40;99.90
26589;DHT22;14235;48.532;8.722;2023-04-03T03:40:52;5.30;99.90
26589;DHT22;14235;48.532;8.722;2023-04-03T03:43:18;5.30;99.90
26589;DHT22;14235;48.532;8.722;2023-04-03T03:45:44;5.30;99.90
26589;DHT22;14235;48.532;8.722;2023-04-03T03:48:11;5.30;99.90
26589;DHT22;14235;48.532;8.722;2023-04-03T03:50:37;5.30;99.90
26589;DHT22;14235;48.532;8.722;2023-04-03T03:55:30;5.30;99.90
26589;DHT22;14235;48.532;8.722;2023-04-03T03:57:55;5.10;99.90
26589;DHT22;14235;48.532;8.722;2023-04-03T04:00:21;5.10;99.90
26589;DHT22;14235;48.532;8.722;2023-04-03T04:02:47;5.20;99.90
26589;DHT22;14235;48.532;8.722;2023-04-03T04:05:12;5.10;99.90
26589;DHT22;14235;48.532;8.722;2023-04-03T04:07:38;5.10;99.90
26589;DHT22;14235;48.532;8.722;2023-04-03T04:10:04;5.20;99.90
26589;DHT22;14235;48.532;8.722;2023-04-03T04:12:29;5.20;99.90
26589;DHT22;14235;48.532;8.722;2023-04-03T04:14:55;5.10;99.90
26589;DHT22;14235;48.532;8.722;2023-04-03T04:17:21;5.00;99.90
26589;DHT22;14235;48.532;8.722;2023-04-03T04:19:46;5.00;99.90
26589;DHT22;14235;48.532;8.722;2023-04-03T04:22:12;5.10;99.90
26589;DHT22;14235;48.532;8.722;2023-04-03T04:24:38;5.10;99.90
26589;DHT22;14235;48.532;8.722;2023-04-03T04:27:03;5.60;99.90
26589;DHT22;14235;48.532;8.722;2023-04-03T04:29:29;5.00;99.90
26589;DHT22;14235;48.532;8.722;2023-04-03T04:31:54;4.90;99.90
26589;DHT22;14235;48.532;8.722;2023-04-03T04:34:20;5.00;99.90
26589;DHT22;14235;48.532;8.722;2023-04-03T04:36:45;4.90;99.90
26589;DHT22;14235;48.532;8.722;2023-04-03T04:39:11;5.00;99.90
26589;DHT22;14235;48.532;8.722;2023-04-03T04:41:37;5.00;99.90
26589;DHT22;14235;48.532;8.722;2023-04-03T04:44:02;5.00;99.90
26589;DHT22;14235;48.532;8.722;2023-04-03T04:46:28;5.10;99.90
26589;DHT22;14235;48.532;8.722;2023-04-03T04:48:53;5.00;99.90
26589;DHT22;14235;48.532;8.722;2023-04-03T04:51:19;5.00;99.90
26589;DHT22;14235;48.532;8.722;2023-04-03T04:53:45;5.00;99.90
26589;DHT22;14235;48.532;8.722;2023-04-03T04:56:11;5.00;99.90
26589;DHT22;14235;48.532;8.722;2023-04-03T04:58:37;5.10;99.90
26589;DHT22;14235;48.532;8.722;2023-04-03T05:01:07;5.00;99.90
26589;DHT22;14235;48.532;8.722;2023-04-03T05:03:33;4.90;99.90
26589;DHT22;14235;48.532;8.722;2023-04-03T05:05:59;5.00;99.90
26589;DHT22;14235;48.532;8.722;2023-04-03T05:08:25;5.00;99.90
26589;DHT22;14235;48.532;8.722;2023-04-03T05:10:51;5.00;99.90
26589;DHT22;14235;48.532;8.722;2023-04-03T05:13:18;5.00;99.90
26589;DHT22;14235;48.532;8.722;2023-04-03T05:15:44;5.20;99.90
26589;DHT22;14235;48.532;8.722;2023-04-03T05:18:10;5.00;99.90
26589;DHT22;14235;48.532;8.722;2023-04-03T05:20:36;4.90;99.90
26589;DHT22;14235;48.532;8.722;2023-04-03T05:23:02;5.00;99.90
26589;DHT22;14235;48.532;8.722;2023-04-03T05:25:28;5.00;99.90
26589;DHT22;14235;48.532;8.722;2023-04-03T05:27:54;4.80;99.90
26589;DHT22;14235;48.532;8.722;2023-04-03T05:30:19;4.90;99.90
26589;DHT22;14235;48.532;8.722;2023-04-03T05:32:45;5.10;99.90
26589;DHT22;14235;48.532;8.722;2023-04-03T05:35:11;4.90;99.90
26589;DHT22;14235;48.532;8.722;2023-04-03T05:37:37;4.90;99.90
26589;DHT22;14235;48.532;8.722;2023-04-03T05:40:04;4.90;99.90
26589;DHT22;14235;48.532;8.722;2023-04-03T05:42:30;5.10;99.90
26589;DHT22;14235;48.532;8.722;2023-04-03T05:44:55;5.00;99.90
26589;DHT22;14235;48.532;8.722;2023-04-03T05:47:21;6.00;99.90
26589;DHT22;14235;48.532;8.722;2023-04-03T05:49:47;5.00;99.90
26589;DHT22;14235;48.532;8.722;2023-04-03T05:54:47;4.90;99.90
26589;DHT22;14235;48.532;8.722;2023-04-03T05:57:14;4.90;99.90
26589;DHT22;14235;48.532;8.722;2023-04-03T05:59:41;4.90;99.90
26589;DHT22;14235;48.532;8.722;2023-04-03T06:02:09;4.90;99.90
26589;DHT22;14235;48.532;8.722;2023-04-03T06:04:35;4.90;99.90
26589;DHT22;14235;48.532;8.722;2023-04-03T06:07:00;5.00;99.90
26589;DHT22;14235;48.532;8.722;2023-04-03T06:09:27;5.00;99.90
26589;DHT22;14235;48.532;8.722;2023-04-03T06:11:54;5.10;99.90
26589;DHT22;14235;48.532;8.722;2023-04-03T06:14:20;5.20;99.90
26589;DHT22;14235;48.532;8.722;2023-04-03T06:16:46;5.10;99.90
26589;DHT22;14235;48.532;8.722;2023-04-03T06:19:12;5.30;99.90
26589;DHT22;14235;48.532;8.722;2023-04-03T06:21:38;5.00;99.90
26589;DHT22;14235;48.532;8.722;2023-04-03T06:24:05;5.10;99.90
26589;DHT22;14235;48.532;8.722;2023-04-03T06:26:31;5.40;99.90
26589;DHT22;14235;48.532;8.722;2023-04-03T06:28:59;5.20;99.90
26589;DHT22;14235;48.532;8.722;2023-04-03T06:31:25;5.10;99.90
26589;DHT22;14235;48.532;8.722;2023-04-03T06:33:51;5.10;99.90
26589;DHT22;14235;48.532;8.722;2023-04-03T06:36:19;5.20;99.90
26589;DHT22;14235;48.532;8.722;2023-04-03T06:38:48;5.60;99.90
26589;DHT22;14235;48.532;8.722;2023-04-03T06:41:14;5.30;99.90
26589;DHT22;14235;48.532;8.722;2023-04-03T06:43:42;5.30;99.90
26589;DHT22;14235;48.532;8.722;2023-04-03T06:46:21;5.30;99.90
26589;DHT22;14235;48.532;8.722;2023-04-03T06:48:47;5.50;99.90
26589;DHT22;14235;48.532;8.722;2023-04-03T06:51:18;5.10;99.90
26589;DHT22;14235;48.532;8.722;2023-04-03T06:53:45;5.30;99.90
26589;DHT22;14235;48.532;8.722;2023-04-03T06:56:11;5.40;99.90
26589;DHT22;14235;48.532;8.722;2023-04-03T06:58:38;5.40;99.90
26589;DHT22;14235;48.532;8.722;2023-04-03T07:01:04;5.50;99.90
26589;DHT22;14235;48.532;8.722;2023-04-03T07:03:29;5.60;99.90
26589;DHT22;14235;48.532;8.722;2023-04-03T07:05:55;5.40;99.90
26589;DHT22;14235;48.532;8.722;2023-04-03T07:08:21;5.50;99.90
26589;DHT22;14235;48.532;8.722;2023-04-03T07:10:48;5.60;99.90
26589;DHT22;14235;48.532;8.722;2023-04-03T07:13:14;5.60;99.90
26589;DHT22;14235;48.532;8.722;2023-04-03T07:15:40;5.60;99.90
26589;DHT22;14235;48.532;8.722;2023-04-03T07:18:05;5.60;99.90
26589;DHT22;14235;48.532;8.722;2023-04-03T07:20:31;5.60;99.90
26589;DHT22;14235;48.532;8.722;2023-04-03T07:22:57;5.60;99.90
26589;DHT22;14235;48.532;8.722;2023-04-03T07:25:23;5.50;99.90
26589;DHT22;14235;48.532;8.722;2023-04-03T07:27:48;5.50;99.90
26589;DHT22;14235;48.532;8.722;2023-04-03T07:30:14;5.60;99.90
26589;DHT22;14235;48.532;8.722;2023-04-03T07:32:40;6.50;99.90
26589;DHT22;14235;48.532;8.722;2023-04-03T07:35:06;5.80;99.90
26589;DHT22;14235;48.532;8.722;2023-04-03T07:37:32;5.80;99.90
26589;DHT22;14235;48.532;8.722;2023-04-03T07:39:58;5.70;99.90
26589;DHT22;14235;48.532;8.722;2023-04-03T07:42:24;5.70;99.90
26589;DHT22;14235;48.532;8.722;2023-04-03T07:44:53;5.80;99.90
26589;DHT22;14235;48.532;8.722;2023-04-03T07:47:19;5.80;99.90
26589;DHT22;14235;48.532;8.722;2023-04-03T07:49:45;5.80;99.90
26589;DHT22;14235;48.532;8.722;2023-04-03T07:52:11;5.70;99.90
26589;DHT22;14235;48.532;8.722;2023-04-03T07:54:37;5.80;99.90
26589;DHT22;14235;48.532;8.722;2023-04-03T07:57:02;5.90;99.90
26589;DHT22;14235;48.532;8.722;2023-04-03T07:59:28;5.80;99.90
26589;DHT22;14235;48.532;8.722;2023-04-03T08:01:54;6.00;99.90
26589;DHT22;14235;48.532;8.722;2023-04-03T08:04:19;5.90;99.90
26589;DHT22;14235;48.532;8.722;2023-04-03T08:06:45;6.00;99.90
26589;DHT22;14235;48.532;8.722;2023-04-03T08:09:10;6.10;99.90
26589;DHT22;14235;48.532;8.722;2023-04-03T08:11:39;6.10;99.90
26589;DHT22;14235;48.532;8.722;2023-04-03T08:14:05;6.20;99.90
26589;DHT22;14235;48.532;8.722;2023-04-03T08:16:30;6.20;99.90
26589;DHT22;14235;48.532;8.722;2023-04-03T08:18:56;6.20;99.90
26589;DHT22;14235;48.532;8.722;2023-04-03T08:21:22;6.00;99.90
26589;DHT22;14235;48.532;8.722;2023-04-03T08:23:49;6.20;99.90
26589;DHT22;14235;48.532;8.722;2023-04-03T08:26:18;6.30;99.90
26589;DHT22;14235;48.532;8.722;2023-04-03T08:28:46;6.30;99.90
26589;DHT22;14235;48.532;8.722;2023-04-03T08:31:14;6.30;99.90
26589;DHT22;14235;48.532;8.722;2023-04-03T08:33:40;6.40;99.90
26589;DHT22;14235;48.532;8.722;2023-04-03T08:36:15;6.50;99.90
26589;DHT22;14235;48.532;8.722;2023-04-03T08:38:41;6.60;99.90
26589;DHT22;14235;48.532;8.722;2023-04-03T08:41:33;6.50;99.90
26589;DHT22;14235;48.532;8.722;2023-04-03T08:49:39;6.60;99.90
26589;DHT22;14235;48.532;8.722;2023-04-03T08:52:13;6.90;99.90
26589;DHT22;14235;48.532;8.722;2023-04-03T08:54:52;8.20;99.90
26589;DHT22;14235;48.532;8.722;2023-04-03T08:57:30;6.80;99.10
26589;DHT22;14235;48.532;8.722;2023-04-03T09:00:00;6.90;99.70
26589;DHT22;14235;48.532;8.722;2023-04-03T09:02:47;6.80;99.50
26589;DHT22;14235;48.532;8.722;2023-04-03T09:05:16;6.90;98.50
26589;DHT22;14235;48.532;8.722;2023-04-03T09:07:46;6.80;98.30
26589;DHT22;14235;48.532;8.722;2023-04-03T09:10:14;6.80;98.10
26589;DHT22;14235;48.532;8.722;2023-04-03T09:12:53;6.80;98.70
26589;DHT22;14235;48.532;8.722;2023-04-03T09:15:24;6.90;99.20
26589;DHT22;14235;48.532;8.722;2023-04-03T09:23:46;7.10;97.90
26589;DHT22;14235;48.532;8.722;2023-04-03T09:29:05;7.10;99.20
26589;DHT22;14235;48.532;8.722;2023-04-03T09:31:39;7.20;99.50
26589;DHT22;14235;48.532;8.722;2023-04-03T09:34:22;7.20;98.20
26589;DHT22;14235;48.532;8.722;2023-04-03T09:36:50;7.40;97.60
26589;DHT22;14235;48.532;8.722;2023-04-03T09:39:22;7.40;96.90
26589;DHT22;14235;48.532;8.722;2023-04-03T09:42:05;7.30;96.50
26589;DHT22;14235;48.532;8.722;2023-04-03T09:44:37;7.40;97.10
26589;DHT22;14235;48.532;8.722;2023-04-03T09:47:25;7.30;96.90
26589;DHT22;14235;48.532;8.722;2023-04-03T09:50:19;7.50;98.00
26589;DHT22;14235;48.532;8.722;2023-04-03T09:52:48;7.50;98.60
26589;DHT22;14235;48.532;8.722;2023-04-03T09:55:25;7.50;99.10
26589;DHT22;14235;48.532;8.722;2023-04-03T09:58:04;7.60;98.90
26589;DHT22;14235;48.532;8.722;2023-04-03T10:00:39;7.70;97.70
26589;DHT22;14235;48.532;8.722;2023-04-03T10:03:25;7.70;97.40
26589;DHT22;14235;48.532;8.722;2023-04-03T10:05:52;7.70;97.50
26589;DHT22;14235;48.532;8.722;2023-04-03T10:08:23;7.60;97.20
26589;DHT22;14235;48.532;8.722;2023-04-03T10:11:06;7.80;97.90
26589;DHT22;14235;48.532;8.722;2023-04-03T10:13:33;7.60;97.00
26589;DHT22;14235;48.532;8.722;2023-04-03T10:16:07;7.70;97.30
26589;DHT22;14235;48.532;8.722;2023-04-03T10:21:29;7.60;97.70
26589;DHT22;14235;48.532;8.722;2023-04-03T10:29:47;7.60;97.20
26589;DHT22;14235;48.532;8.722;2023-04-03T10:40:50;7.60;97.50
26589;DHT22;14235;48.532;8.722;2023-04-03T10:43:41;7.70;97.00
26589;DHT22;14235;48.532;8.722;2023-04-03T10:46:27;7.50;96.80
26589;DHT22;14235;48.532;8.722;2023-04-03T10:51:48;7.50;97.70
26589;DHT22;14235;48.532;8.722;2023-04-03T10:54:25;7.60;97.60
26589;DHT22;14235;48.532;8.722;2023-04-03T10:56:54;7.60;97.80
26589;DHT22;14235;48.532;8.722;2023-04-03T11:02:07;7.70;98.40
26589;DHT22;14235;48.532;8.722;2023-04-03T11:04:39;7.60;98.20
26589;DHT22;14235;48.532;8.722;2023-04-03T11:07:08;7.50;98.00
26589;DHT22;14235;48.532;8.722;2023-04-03T11:09:39;7.70;97.90
26589;DHT22;14235;48.532;8.722;2023-04-03T11:12:30;7.80;97.70
26589;DHT22;14235;48.532;8.722;2023-04-03T11:14:59;7.70;98.10
26589;DHT22;14235;48.532;8.722;2023-04-03T11:17:33;7.50;97.40
26589;DHT22;14235;48.532;8.722;2023-04-03T11:20:28;7.50;97.00
26589;DHT22;14235;48.532;8.722;2023-04-03T11:23:06;7.60;97.00
26589;DHT22;14235;48.532;8.722;2023-04-03T11:25:34;7.50;97.20
26589;DHT22;14235;48.532;8.722;2023-04-03T11:28:04;7.40;97.40
26589;DHT22;14235;48.532;8.722;2023-04-03T11:33:28;7.40;96.80
26589;DHT22;14235;48.532;8.722;2023-04-03T11:36:03;7.40;97.30
26589;DHT22;14235;48.532;8.722;2023-04-03T11:38:36;7.40;97.50
26589;DHT22;14235;48.532;8.722;2023-04-03T11:41:07;7.50;97.10
26589;DHT22;14235;48.532;8.722;2023-04-03T11:43:36;7.60;96.80
26589;DHT22;14235;48.532;8.722;2023-04-03T11:46:05;7.50;97.30
26589;DHT22;14235;48.532;8.722;2023-04-03T11:53:42;7.30;97.90
26589;DHT22;14235;48.532;8.722;2023-04-03T11:56:29;7.70;97.90
26589;DHT22;14235;48.532;8.722;2023-04-03T12:01:44;7.50;97.60
26589;DHT22;14235;48.532;8.722;2023-04-03T12:04:12;8.00;97.80
26589;DHT22;14235;48.532;8.722;2023-04-03T12:07:12;7.50;97.30
26589;DHT22;14235;48.532;8.722;2023-04-03T12:12:37;8.50;97.00
26589;DHT22;14235;48.532;8.722;2023-04-03T12:17:47;7.70;96.50
26589;DHT22;14235;48.532;8.722;2023-04-03T12:26:06;7.60;96.60
26589;DHT22;14235;48.532;8.722;2023-04-03T12:28:45;7.50;96.30
26589;DHT22;14235;48.532;8.722;2023-04-03T12:31:12;7.60;96.60
26589;DHT22;14235;48.532;8.722;2023-04-03T12:33:59;7.60;96.40
26589;DHT22;14235;48.532;8.722;2023-04-03T12:36:43;7.60;96.70
26589;DHT22;14235;48.532;8.722;2023-04-03T12:42:29;7.70;96.40
26589;DHT22;14235;48.532;8.722;2023-04-03T12:47:34;7.70;96.30
26589;DHT22;14235;48.532;8.722;2023-04-03T12:50:03;7.50;95.90
26589;DHT22;14235;48.532;8.722;2023-04-03T12:52:40;7.70;95.90
26589;DHT22;14235;48.532;8.722;2023-04-03T12:55:33;7.40;95.20
26589;DHT22;14235;48.532;8.722;2023-04-03T12:58:15;7.60;95.30
26589;DHT22;14235;48.532;8.722;2023-04-03T13:00:42;7.40;95.40
26589;DHT22;14235;48.532;8.722;2023-04-03T13:03:22;7.50;95.50
26589;DHT22;14235;48.532;8.722;2023-04-03T13:05:49;7.50;95.70
26589;DHT22;14235;48.532;8.722;2023-04-03T13:08:15;7.50;95.10
26589;DHT22;14235;48.532;8.722;2023-04-03T13:11:08;7.40;95.20
26589;DHT22;14235;48.532;8.722;2023-04-03T13:13:35;7.70;95.70
26589;DHT22;14235;48.532;8.722;2023-04-03T13:16:08;7.70;95.40
26589;DHT22;14235;48.532;8.722;2023-04-03T13:18:36;7.80;95.10
26589;DHT22;14235;48.532;8.722;2023-04-03T13:21:15;7.70;95.00
26589;DHT22;14235;48.532;8.722;2023-04-03T13:23:45;7.80;95.20
26589;DHT22;14235;48.532;8.722;2023-04-03T13:26:16;7.70;94.80
26589;DHT22;14235;48.532;8.722;2023-04-03T13:28:44;7.50;94.60
26589;DHT22;14235;48.532;8.722;2023-04-03T13:34:06;7.60;95.20
26589;DHT22;14235;48.532;8.722;2023-04-03T13:36:59;7.60;95.50
26589;DHT22;14235;48.532;8.722;2023-04-03T13:39:31;7.60;95.60
26589;DHT22;14235;48.532;8.722;2023-04-03T13:42:03;7.90;95.60
26589;DHT22;14235;48.532;8.722;2023-04-03T13:44:39;7.60;95.20
26589;DHT22;14235;48.532;8.722;2023-04-03T13:49:39;7.50;94.80
26589;DHT22;14235;48.532;8.722;2023-04-03T13:52:29;7.40;95.00
26589;DHT22;14235;48.532;8.722;2023-04-03T13:54:58;7.40;95.00
26589;DHT22;14235;48.532;8.722;2023-04-03T13:57:24;7.50;94.90
26589;DHT22;14235;48.532;8.722;2023-04-03T13:59:50;7.50;95.10
26589;DHT22;14235;48.532;8.722;2023-04-03T14:02:32;7.50;94.80
26589;DHT22;14235;48.532;8.722;2023-04-03T14:05:00;7.70;94.60
26589;DHT22;14235;48.532;8.722;2023-04-03T14:07:29;7.70;94.90
26589;DHT22;14235;48.532;8.722;2023-04-03T14:09:55;7.70;94.40
26589;DHT22;14235;48.532;8.722;2023-04-03T14:12:31;7.80;94.40
26589;DHT22;14235;48.532;8.722;2023-04-03T14:15:01;7.70;94.30
26589;DHT22;14235;48.532;8.722;2023-04-03T14:17:27;7.80;94.50
26589;DHT22;14235;48.532;8.722;2023-04-03T14:19:54;7.60;94.60
26589;DHT22;14235;48.532;8.722;2023-04-03T14:22:27;7.60;94.80
26589;DHT22;14235;48.532;8.722;2023-04-03T14:24:54;7.70;94.60
26589;DHT22;14235;48.532;8.722;2023-04-03T14:27:26;7.50;94.60
26589;DHT22;14235;48.532;8.722;2023-04-03T14:29:54;7.40;94.40
26589;DHT22;14235;48.532;8.722;2023-04-03T14:32:21;7.30;94.60
26589;DHT22;14235;48.532;8.722;2023-04-03T14:34:47;7.40;94.60
26589;DHT22;14235;48.532;8.722;2023-04-03T14:37:21;7.30;94.30
26589;DHT22;14235;48.532;8.722;2023-04-03T14:39:48;7.60;94.30
26589;DHT22;14235;48.532;8.722;2023-04-03T14:42:17;7.40;94.30
26589;DHT22;14235;48.532;8.722;2023-04-03T14:44:43;7.60;94.40
26589;DHT22;14235;48.532;8.722;2023-04-03T14:47:11;7.60;94.20
26589;DHT22;14235;48.532;8.722;2023-04-03T14:49:37;7.70;94.20
26589;DHT22;14235;48.532;8.722;2023-04-03T14:52:03;7.70;93.70
26589;DHT22;14235;48.532;8.722;2023-04-03T14:54:29;7.70;93.90
26589;DHT22;14235;48.532;8.722;2023-04-03T14:56:56;7.70;93.70
26589;DHT22;14235;48.532;8.722;2023-04-03T14:59:22;7.60;93.50
26589;DHT22;14235;48.532;8.722;2023-04-03T15:01:49;7.60;93.50
26589;DHT22;14235;48.532;8.722;2023-04-03T15:04:19;7.60;93.20
26589;DHT22;14235;48.532;8.722;2023-04-03T15:06:46;7.50;93.20
26589;DHT22;14235;48.532;8.722;2023-04-03T15:09:24;7.50;93.40
26589;DHT22;14235;48.532;8.722;2023-04-03T15:11:51;7.50;94.00
26589;DHT22;14235;48.532;8.722;2023-04-03T15:14:17;7.40;93.80
26589;DHT22;14235;48.532;8.722;2023-04-03T15:16:43;7.40;94.00
26589;DHT22;14235;48.532;8.722;2023-04-03T15:19:10;7.40;94.20
26589;DHT22;14235;48.532;8.722;2023-04-03T15:21:36;7.40;93.90
26589;DHT22;14235;48.532;8.722;2023-04-03T15:24:01;7.70;93.80
26589;DHT22;14235;48.532;8.722;2023-04-03T15:26:27;7.50;93.90
26589;DHT22;14235;48.532;8.722;2023-04-03T15:28:52;7.50;93.90
26589;DHT22;14235;48.532;8.722;2023-04-03T15:31:18;7.50;93.10
26589;DHT22;14235;48.532;8.722;2023-04-03T15:33:44;7.50;92.70
26589;DHT22;14235;48.532;8.722;2023-04-03T15:36:09;7.70;92.60
26589;DHT22;14235;48.532;8.722;2023-04-03T15:38:35;7.50;92.20
26589;DHT22;14235;48.532;8.722;2023-04-03T15:41:02;7.50;92.30
26589;DHT22;14235;48.532;8.722;2023-04-03T15:43:28;7.70;92.50
26589;DHT22;14235;48.532;8.722;2023-04-03T15:45:57;7.60;92.90
26589;DHT22;14235;48.532;8.722;2023-04-03T15:48:23;7.70;92.70
26589;DHT22;14235;48.532;8.722;2023-04-03T15:50:48;7.60;92.10
26589;DHT22;14235;48.532;8.722;2023-04-03T15:53:14;7.50;92.20
26589;DHT22;14235;48.532;8.722;2023-04-03T15:55:39;7.50;92.40
26589;DHT22;14235;48.532;8.722;2023-04-03T15:58:06;8.00;92.70
26589;DHT22;14235;48.532;8.722;2023-04-03T16:00:32;7.30;92.60
26589;DHT22;14235;48.532;8.722;2023-04-03T16:03:02;7.40;92.90
26589;DHT22;14235;48.532;8.722;2023-04-03T16:05:30;7.30;92.90
26589;DHT22;14235;48.532;8.722;2023-04-03T16:07:57;7.30;92.90
26589;DHT22;14235;48.532;8.722;2023-04-03T16:10:23;7.40;93.10
26589;DHT22;14235;48.532;8.722;2023-04-03T16:12:49;7.30;92.60
26589;DHT22;14235;48.532;8.722;2023-04-03T16:15:14;7.30;92.80
26589;DHT22;14235;48.532;8.722;2023-04-03T16:17:40;7.30;92.90
26589;DHT22;14235;48.532;8.722;2023-04-03T16:20:09;7.40;92.80
26589;DHT22;14235;48.532;8.722;2023-04-03T16:22:36;7.50;92.60
26589;DHT22;14235;48.532;8.722;2023-04-03T16:25:02;7.50;92.50
26589;DHT22;14235;48.532;8.722;2023-04-03T16:27:28;7.50;92.70
26589;DHT22;14235;48.532;8.722;2023-04-03T16:29:56;7.40;92.80
26589;DHT22;14235;48.532;8.722;2023-04-03T16:32:22;7.40;92.80
26589;DHT22;14235;48.532;8.722;2023-04-03T16:34:48;7.30;92.70
26589;DHT22;14235;48.532;8.722;2023-04-03T16:37:15;7.30;92.70
26589;DHT22;14235;48.532;8.722;2023-04-03T16:39:40;7.20;92.40
26589;DHT22;14235;48.532;8.722;2023-04-03T16:42:06;7.20;92.70
26589;DHT22;14235;48.532;8.722;2023-04-03T16:44:32;7.10;92.90
26589;DHT22;14235;48.532;8.722;2023-04-03T16:46:57;7.10;92.90
26589;DHT22;14235;48.532;8.722;2023-04-03T16:49:24;7.10;92.80
26589;DHT22;14235;48.532;8.722;2023-04-03T16:51:49;7.20;92.90
26589;DHT22;14235;48.532;8.722;2023-04-03T16:54:15;7.10;93.10
26589;DHT22;14235;48.532;8.722;2023-04-03T16:56:40;7.10;93.40
26589;DHT22;14235;48.532;8.722;2023-04-03T16:59:06;7.10;93.30
26589;DHT22;14235;48.532;8.722;2023-04-03T17:01:32;7.00;93.00
26589;DHT22;14235;48.532;8.722;2023-04-03T17:03:58;7.10;92.80
26589;DHT22;14235;48.532;8.722;2023-04-03T17:06:23;7.10;92.70
26589;DHT22;14235;48.532;8.722;2023-04-03T17:08:50;7.10;92.70
26589;DHT22;14235;48.532;8.722;2023-04-03T17:11:17;7.10;92.30
26589;DHT22;14235;48.532;8.722;2023-04-03T17:13:43;7.00;92.50
26589;DHT22;14235;48.532;8.722;2023-04-03T17:16:12;7.00;92.30
26589;DHT22;14235;48.532;8.722;2023-04-03T17:18:39;6.90;92.40
26589;DHT22;14235;48.532;8.722;2023-04-03T17:21:05;7.10;92.00
26589;DHT22;14235;48.532;8.722;2023-04-03T17:23:32;7.10;91.80
26589;DHT22;14235;48.532;8.722;2023-04-03T17:26:00;7.00;91.70